createdAt,value
2018-06-07T00:01:21.846Z,99326.16
2018-06-07T00:07:27.618Z,99320.13
2018-06-07T00:13:33.293Z,99315.89
2018-06-07T00:19:38.947Z,99322.85
2018-06-07T00:25:44.587Z,99322.36
2018-06-07T00:31:50.633Z,99326.12
2018-06-07T00:37:56.465Z,99321.86
2018-06-07T00:44:02.312Z,99323.56
2018-06-07T00:50:07.989Z,99316.36
2018-06-07T00:56:29.398Z,99325.48
2018-06-07T01:02:35.348Z,99332.70
2018-06-07T01:08:41.307Z,99330.31
2018-06-07T01:14:47.016Z,99337.63
2018-06-07T01:20:53.179Z,99336.70
2018-06-07T01:26:58.922Z,99335.53
2018-06-07T01:33:38.911Z,99344.33
2018-06-07T01:39:44.561Z,99339.09
2018-06-07T01:45:50.343Z,99334.70
2018-06-07T01:51:56.773Z,99336.67
2018-06-07T01:58:02.559Z,99351.13
2018-06-07T02:04:08.199Z,99339.16
2018-06-07T02:10:13.999Z,99329.80
2018-06-07T02:16:19.916Z,99336.94
2018-06-07T02:22:25.644Z,99334.50
2018-06-07T02:28:31.299Z,99333.58
2018-06-07T02:34:36.941Z,99336.10
2018-06-07T02:40:42.572Z,99345.89
2018-06-07T02:46:48.215Z,99349.95
2018-06-07T02:52:54.058Z,99347.22
2018-06-07T02:58:59.737Z,99353.23
2018-06-07T03:05:05.584Z,99353.84
2018-06-07T03:11:11.281Z,99353.73
2018-06-07T03:17:16.911Z,99358.37
2018-06-07T03:23:22.632Z,99352.64
2018-06-07T03:29:28.363Z,99362.64
2018-06-07T03:35:34.128Z,99369.19
2018-06-07T03:41:39.783Z,99374.01
2018-06-07T03:47:45.512Z,99365.11
2018-06-07T03:53:51.227Z,99374.31
2018-06-07T03:59:56.891Z,99370.84
2018-06-07T04:06:02.601Z,99379.58
2018-06-07T04:12:08.344Z,99380.47
2018-06-07T04:18:14.102Z,99388.58
2018-06-07T04:24:19.861Z,99374.66
2018-06-07T04:30:25.694Z,99388.52
2018-06-07T04:36:31.879Z,99387.70
2018-06-07T04:42:37.577Z,99406.28
2018-06-07T04:48:43.275Z,99416.52
2018-06-07T04:54:48.997Z,99415.76
2018-06-07T05:00:54.877Z,99422.11
2018-06-07T05:07:00.499Z,99426.49
2018-06-07T05:13:06.229Z,99418.26
2018-06-07T05:19:11.883Z,99411.42
2018-06-07T05:25:17.522Z,99413.05
2018-06-07T05:31:24.496Z,99398.28
2018-06-07T05:37:30.122Z,99399.06
2018-06-07T05:43:35.772Z,99393.95
2018-06-07T05:49:41.408Z,99388.05
2018-06-07T05:55:47.150Z,99387.34
2018-06-07T06:01:52.820Z,99401.69
2018-06-07T06:07:58.500Z,99401.39
2018-06-07T06:14:04.199Z,99403.95
2018-06-07T06:20:09.869Z,99403.84
2018-06-07T06:26:15.609Z,99403.63
2018-06-07T06:32:21.825Z,99405.13
2018-06-07T06:38:35.803Z,99395.31
2018-06-07T06:44:41.546Z,99392.88
2018-06-07T06:50:47.264Z,99398.77
2018-06-07T06:56:52.926Z,99410.50
2018-06-07T07:02:58.565Z,99416.58
2018-06-07T07:09:05.227Z,99418.22
2018-06-07T07:15:10.813Z,99416.69
2018-06-07T07:21:16.447Z,99417.04
2018-06-07T07:27:22.177Z,99414.99
2018-06-07T07:33:28.159Z,99413.19
2018-06-07T07:39:33.877Z,99410.27
2018-06-07T07:45:39.943Z,99417.73
2018-06-07T07:51:45.629Z,99410.70
2018-06-07T07:57:52.765Z,99410.39
2018-06-07T08:03:58.687Z,99411.12
2018-06-07T08:10:04.435Z,99415.36
2018-06-07T08:16:10.172Z,99421.75
2018-06-07T08:22:15.882Z,99421.22
2018-06-07T08:28:21.881Z,99419.26
2018-06-07T08:34:27.609Z,99417.42
2018-06-07T08:40:33.334Z,99411.89
2018-06-07T08:46:39.299Z,99404.68
2018-06-07T08:52:45.084Z,99400.80
2018-06-07T08:58:52.236Z,99398.85
2018-06-07T09:04:57.911Z,99408.11
2018-06-07T09:11:03.708Z,99399.91
2018-06-07T09:17:09.421Z,99410.87
2018-06-07T09:23:15.233Z,99409.76
2018-06-07T09:29:21.388Z,99404.52
2018-06-07T09:35:28.577Z,99406.22
2018-06-07T09:41:34.353Z,99406.40
2018-06-07T09:47:40.107Z,99401.73
2018-06-07T09:53:45.750Z,99401.61
2018-06-07T09:59:51.721Z,99401.30
2018-06-07T10:05:57.973Z,99390.95
2018-06-07T10:12:03.864Z,99396.57
2018-06-07T10:18:09.514Z,99397.17
2018-06-07T10:24:15.143Z,99394.77
2018-06-07T10:30:21.623Z,99392.94
2018-06-07T10:36:27.409Z,99388.05
2018-06-07T10:42:33.182Z,99388.69
2018-06-07T10:48:38.899Z,99380.09
2018-06-07T10:54:44.669Z,99379.01
2018-06-07T11:00:51.152Z,99368.24
2018-06-07T11:06:57.257Z,99367.66
2018-06-07T11:13:03.181Z,99362.93
2018-06-07T11:19:08.891Z,99359.16
2018-06-07T11:25:14.574Z,99339.36
2018-06-07T11:31:21.153Z,99346.73
2018-06-07T11:37:26.884Z,99346.14
2018-06-07T11:43:32.612Z,99338.02
2018-06-07T11:49:38.287Z,99334.25
2018-06-07T11:55:43.927Z,99326.72
2018-06-07T12:01:49.745Z,99317.95
2018-06-07T12:07:55.574Z,99306.29
2018-06-07T12:14:01.256Z,99293.84
2018-06-07T12:20:06.953Z,99289.62
2018-06-07T12:26:12.669Z,99289.08
2018-06-07T12:32:18.337Z,99285.01
2018-06-07T12:38:24.135Z,99281.41
2018-06-07T12:44:30.065Z,99276.28
2018-06-07T12:50:36.106Z,99272.26
2018-06-07T12:56:42.239Z,99268.62
2018-06-07T13:02:47.860Z,99267.84
2018-06-07T13:08:54.049Z,99267.06
2018-06-07T13:14:59.857Z,99260.66
2018-06-07T13:21:05.464Z,99262.94
2018-06-07T13:27:11.525Z,99249.10
2018-06-07T13:33:17.189Z,99246.97
2018-06-07T13:39:24.208Z,99240.29
2018-06-07T13:45:29.923Z,99230.36
2018-06-07T13:51:35.556Z,99221.61
2018-06-07T13:57:41.485Z,99211.98
2018-06-07T14:03:47.309Z,99210.95
2018-06-07T14:09:54.669Z,99199.14
2018-06-07T14:16:00.373Z,99194.80
2018-06-07T14:22:06.233Z,99175.82
2018-06-07T14:28:11.896Z,99176.65
2018-06-07T14:34:17.985Z,99170.04
2018-06-07T14:40:23.925Z,99174.25
2018-06-07T14:46:29.633Z,99178.36
2018-06-07T14:52:35.282Z,99171.03
2018-06-07T14:58:41.456Z,99158.44
2018-06-07T15:04:47.171Z,99160.86
2018-06-07T15:10:53.461Z,99166.52
2018-06-07T15:16:59.164Z,99168.10
2018-06-07T15:23:04.791Z,99165.59
2018-06-07T15:29:10.446Z,99164.93
2018-06-07T15:35:16.294Z,99168.25
2018-06-07T15:41:21.889Z,99169.58
2018-06-07T15:47:27.694Z,99166.09
2018-06-07T15:53:33.501Z,99162.59
2018-06-07T15:59:39.243Z,99159.16
2018-06-07T16:05:45.063Z,99161.80
2018-06-07T16:11:50.936Z,99169.34
2018-06-07T16:17:56.804Z,99173.17
2018-06-07T16:24:02.492Z,99167.64
2018-06-07T16:30:08.384Z,99151.17
2018-06-07T16:36:14.145Z,99151.09
2018-06-07T16:42:19.967Z,99146.38
2018-06-07T16:48:25.673Z,99145.29
2018-06-07T16:54:31.528Z,99148.13
2018-06-07T17:00:37.183Z,99161.80
2018-06-07T17:06:43.020Z,99202.73
2018-06-07T17:12:48.868Z,99188.66
2018-06-07T17:18:54.617Z,99177.91
2018-06-07T17:25:00.363Z,99190.23
2018-06-07T17:31:06.488Z,99209.73
2018-06-07T17:37:12.585Z,99239.25
2018-06-07T17:43:18.289Z,99323.02
2018-06-07T17:49:24.556Z,99366.14
2018-06-07T17:55:30.240Z,99367.37
2018-06-07T18:01:36.148Z,99353.98
2018-06-07T18:07:41.851Z,99324.01
2018-06-07T18:13:47.655Z,99303.52
2018-06-07T18:19:54.682Z,99293.14
2018-06-07T18:26:00.386Z,99280.58
2018-06-07T18:32:06.953Z,99256.59
2018-06-07T18:38:12.736Z,99256.05
2018-06-07T18:44:18.583Z,99267.27
2018-06-07T18:50:24.338Z,99277.36
2018-06-07T18:56:30.253Z,99278.70
2018-06-07T19:02:38.948Z,99270.51
2018-06-07T19:08:50.201Z,99269.16
2018-06-07T19:15:01.354Z,99278.72
2018-06-07T19:21:07.649Z,99274.62
2018-06-07T19:27:18.681Z,99267.52
2018-06-07T19:33:29.452Z,99277.08
2018-06-07T19:39:40.404Z,99268.61
2018-06-07T19:45:46.115Z,99278.72
2018-06-07T19:51:53.830Z,99283.53
2018-06-07T19:57:59.477Z,99269.52
2018-06-07T20:04:05.284Z,99261.87
2018-06-07T20:10:11.112Z,99270.42
2018-06-07T20:16:16.739Z,99272.81
2018-06-07T20:22:22.371Z,99282.68
2018-06-07T20:28:28.154Z,99292.80
2018-06-07T20:34:34.075Z,99299.44
2018-06-07T20:40:39.912Z,99286.51
2018-06-07T20:46:45.689Z,99282.16
2018-06-07T20:52:52.033Z,99278.38
2018-06-07T20:58:57.761Z,99276.08
2018-06-07T21:05:03.696Z,99272.52
2018-06-07T21:11:09.493Z,99285.29
2018-06-07T21:17:15.190Z,99283.33
2018-06-07T21:23:22.279Z,99276.37
2018-06-07T21:29:28.334Z,99279.42
2018-06-07T21:35:34.220Z,99283.66
2018-06-07T21:41:39.887Z,99276.27
2018-06-07T21:47:45.669Z,99271.06
2018-06-07T21:53:51.614Z,99273.82
2018-06-07T21:59:58.151Z,99280.84
2018-06-07T22:06:03.784Z,99275.48
2018-06-07T22:12:09.510Z,99259.42
2018-06-07T22:18:15.218Z,99255.88
2018-06-07T22:24:20.991Z,99258.52
2018-06-07T22:30:26.626Z,99269.08
2018-06-07T22:36:32.261Z,99268.95
2018-06-07T22:42:37.939Z,99274.80
2018-06-07T22:48:43.645Z,99283.53
2018-06-07T22:54:49.519Z,99279.32
2018-06-07T23:00:55.525Z,99280.20
2018-06-07T23:07:01.360Z,99283.53
2018-06-07T23:13:07.087Z,99273.30
2018-06-07T23:19:12.785Z,99271.94
2018-06-07T23:25:18.571Z,99257.55
2018-06-07T23:31:24.280Z,99266.36
2018-06-07T23:37:30.037Z,99267.00
2018-06-07T23:43:35.723Z,99269.31
2018-06-07T23:49:41.604Z,99282.13
2018-06-07T23:55:47.653Z,99270.58
